Time;durP1;ratioP1;P1;durP2;ratioP2;P2;SDS_P1;SDS_P2;PMS_P1;PMS_P2;Temp;Humidity;BMP_temperature;BMP_pressure;BME280_temperature;BME280_humidity;BME280_pressure;Samples;Min_cycle;Max_cycle;Signal;HPM_P1;HPM_P2
2023/02/10 00:02:00;;;;;;;27.70;19.83;;;;;;;-2.35;93.33;150772.31;5028638;28;20530;-80
2023/02/10 00:04:26;;;;;;;30.57;19.60;;;;;;;-2.39;92.93;150762.09;5052470;28;20458;-79
2023/02/10 00:06:54;;;;;;;28.10;20.13;;;;;;;-2.43;93.55;150753.13;5027853;28;20558;-80
2023/02/10 00:09:21;;;;;;;27.80;18.20;;;;;;;-2.43;93.09;150753.13;5031178;28;20464;-80
2023/02/10 00:11:57;;;;;;;32.50;20.40;;;;;;;-2.45;92.61;150748.03;5031117;28;20576;-80
2023/02/10 00:14:24;;;;;;;34.63;19.30;;;;;;;-2.44;93.41;150749.31;5026215;28;20446;-80
2023/02/10 00:16:51;;;;;;;33.93;20.50;;;;;;;-2.47;93.38;150744.19;5032908;28;20488;-80
2023/02/10 00:19:18;;;;;;;29.60;19.37;;;;;;;-2.47;93.70;150744.19;5030075;28;20821;-80
2023/02/10 00:21:45;;;;;;;34.13;19.00;;;;;;;-2.44;93.81;150750.59;5062288;28;20804;-80
2023/02/10 00:24:13;;;;;;;33.20;20.13;;;;;;;-2.42;93.56;150755.72;5040227;28;20507;-80
2023/02/10 00:26:39;;;;;;;32.33;20.67;;;;;;;-2.41;93.34;150758.28;5031178;28;20557;-80
2023/02/10 00:29:06;;;;;;;31.93;20.60;;;;;;;-2.41;93.44;150757.00;5030757;28;20783;-80
2023/02/10 00:31:33;;;;;;;27.97;19.23;;;;;;;-2.44;93.67;150749.31;5040932;28;20473;-80
2023/02/10 00:34:00;;;;;;;30.87;18.43;;;;;;;-2.47;93.67;150744.19;5031934;28;20454;-80
2023/02/10 00:36:27;;;;;;;31.80;19.90;;;;;;;-2.55;93.58;150723.72;5028442;28;20505;-80
2023/02/10 00:38:54;;;;;;;34.10;21.50;;;;;;;-2.59;93.53;150713.44;5031270;28;20471;-80
2023/02/10 00:41:23;;;;;;;34.10;18.80;;;;;;;-2.56;93.71;150721.13;5031296;28;20458;-80
2023/02/10 00:43:55;;;;;;;35.90;21.67;;;;;;;-2.59;94.60;150713.44;5027674;28;20445;-80
2023/02/10 00:46:22;;;;;;;24.73;18.10;;;;;;;-2.63;93.95;150701.94;5026146;28;20546;-80
2023/02/10 00:48:50;;;;;;;28.73;19.10;;;;;;;-2.67;94.40;150691.69;5064249;28;20476;-79
2023/02/10 00:51:17;;;;;;;29.27;20.77;;;;;;;-2.70;94.58;150685.28;5028685;28;20455;-80
2023/02/10 00:53:44;;;;;;;31.30;19.70;;;;;;;-2.77;95.04;150667.38;5012159;28;20945;-80
2023/02/10 00:56:11;;;;;;;35.53;21.47;;;;;;;-2.82;94.64;150653.28;5027349;28;20478;-79
2023/02/10 00:58:39;;;;;;;28.00;19.70;;;;;;;-2.85;95.26;150646.91;5018463;28;20449;-80
2023/02/10 01:01:06;;;;;;;28.43;20.27;;;;;;;-2.91;95.83;150631.53;5042064;28;20450;-79
2023/02/10 01:03:33;;;;;;;28.50;19.70;;;;;;;-2.92;95.35;150627.69;5024198;28;20560;-79
2023/02/10 01:06:00;;;;;;;30.90;20.53;;;;;;;-2.91;95.71;150630.28;5047981;28;20485;-79
2023/02/10 01:08:27;;;;;;;28.07;18.33;;;;;;;-2.93;96.24;150626.41;5022005;28;20461;-79
2023/02/10 01:11:00;;;;;;;29.67;19.67;;;;;;;-2.96;96.11;150617.44;5028964;28;20470;-79
2023/02/10 01:13:26;;;;;;;30.27;20.57;;;;;;;-2.95;95.93;150620.00;5029786;28;20458;-80
2023/02/10 01:15:55;;;;;;;32.70;21.03;;;;;;;-2.96;95.75;150618.72;5032822;28;20434;-79
2023/02/10 01:18:21;;;;;;;30.17;19.30;;;;;;;-2.97;95.98;150616.19;5028869;28;20911;-79
2023/02/10 01:20:48;;;;;;;32.73;20.40;;;;;;;-2.98;96.51;150612.34;5010331;28;20545;-80
2023/02/10 01:23:15;;;;;;;29.87;20.33;;;;;;;-3.04;96.57;150597.00;5031408;28;20814;-79
2023/02/10 01:25:41;;;;;;;31.10;20.40;;;;;;;-3.07;96.65;150591.84;5024267;28;20479;-80
2023/02/10 01:28:10;;;;;;;29.90;20.10;;;;;;;-3.01;97.90;150605.94;5026741;28;20458;-80
2023/02/10 01:30:37;;;;;;;32.30;20.37;;;;;;;-3.01;97.71;150605.94;5024208;28;20473;-79
2023/02/10 01:33:05;;;;;;;31.07;20.87;;;;;;;-3.00;97.38;150608.50;5031513;28;20521;-80
2023/02/10 01:35:32;;;;;;;29.33;19.40;;;;;;;-3.03;97.04;150600.84;5030923;28;20450;-80
2023/02/10 01:37:59;;;;;;;29.60;19.50;;;;;;;-3.10;96.60;150582.94;5026180;28;20476;-79
2023/02/10 01:40:26;;;;;;;34.83;18.23;;;;;;;-3.10;96.84;150582.94;5043745;28;20457;-80
2023/02/10 01:42:54;;;;;;;28.97;20.00;;;;;;;-3.09;97.01;150585.47;5010831;28;20548;-79
2023/02/10 01:45:21;;;;;;;32.93;20.50;;;;;;;-3.14;97.39;150573.97;5042889;28;21118;-80
2023/02/10 01:47:50;;;;;;;28.80;20.03;;;;;;;-3.17;97.82;150565.00;5029038;28;20875;-79
2023/02/10 01:50:20;;;;;;;30.27;19.87;;;;;;;-3.21;97.26;150554.78;5031051;28;20532;-80
2023/02/10 01:52:47;;;;;;;32.93;21.27;;;;;;;-3.24;97.57;150548.38;5027428;28;20443;-79
2023/02/10 01:55:17;;;;;;;30.27;20.23;;;;;;;-3.29;97.73;150534.31;5027880;28;20457;-79
2023/02/10 01:57:45;;;;;;;29.90;19.43;;;;;;;-3.32;98.36;150526.63;5031872;28;20902;-79
2023/02/10 02:00:14;;;;;;;31.10;19.87;;;;;;;-3.30;97.96;150531.72;5027756;28;20464;-79
2023/02/10 02:02:42;;;;;;;31.80;20.20;;;;;;;-3.30;98.38;150531.72;5019450;28;22280;-79
2023/02/10 02:05:28;;;;;;;32.43;20.40;;;;;;;-3.25;98.04;150545.81;5026846;28;20496;-79
2023/02/10 02:07:55;;;;;;;30.47;20.60;;;;;;;-3.26;97.98;150541.97;5030682;28;20945;-79
2023/02/10 02:10:24;;;;;;;30.43;21.33;;;;;;;-3.29;97.66;150535.59;5026929;28;20467;-80
2023/02/10 02:12:55;;;;;;;32.63;20.23;;;;;;;-3.27;98.24;150539.41;5005065;28;21683;-79
2023/02/10 02:15:26;;;;;;;34.63;20.50;;;;;;;-3.31;97.79;150530.44;5030746;28;20462;-79
2023/02/10 02:17:57;;;;;;;31.07;20.47;;;;;;;-3.32;97.61;150526.63;5023667;28;20894;-79
2023/02/10 02:20:55;;;;;;;27.53;19.37;;;;;;;-3.30;97.84;150531.72;5027546;28;20454;-79
2023/02/10 02:23:39;;;;;;;28.10;18.30;;;;;;;-3.33;98.26;150524.03;5026124;28;20468;-79
2023/02/10 02:26:21;;;;;;;37.23;20.57;;;;;;;-3.32;98.18;150526.63;4996885;28;20435;-79
2023/02/10 02:29:01;;;;;;;31.37;19.80;;;;;;;-3.29;98.04;150535.59;5016428;28;20535;-79
2023/02/10 02:31:44;;;;;;;30.63;19.50;;;;;;;-3.28;97.59;150538.13;5026089;28;20454;-79
2023/02/10 02:34:15;;;;;;;32.77;20.47;;;;;;;-3.28;98.14;150536.84;5023798;28;20449;-79
2023/02/10 02:36:44;;;;;;;33.60;19.57;;;;;;;-3.21;98.26;150554.78;5028987;28;20817;-79
2023/02/10 02:39:11;;;;;;;31.40;19.37;;;;;;;-3.20;97.65;150557.31;5027510;28;20454;-79
2023/02/10 02:41:38;;;;;;;28.60;19.50;;;;;;;-3.19;97.32;150559.88;5018438;28;20489;-79
2023/02/10 02:44:06;;;;;;;29.10;18.83;;;;;;;-3.19;97.71;150559.88;5012691;28;20474;-79
2023/02/10 02:46:46;;;;;;;34.70;20.73;;;;;;;-3.22;97.75;150552.19;5012806;28;20537;-79
2023/02/10 02:49:19;;;;;;;32.67;20.30;;;;;;;-3.21;97.56;150556.06;5023857;28;20465;-79
2023/02/10 02:51:51;;;;;;;30.40;19.80;;;;;;;-3.24;97.93;150547.09;5009627;28;20442;-79
2023/02/10 02:54:24;;;;;;;31.13;20.57;;;;;;;-3.22;98.36;150552.19;5029164;28;20454;-79
2023/02/10 02:56:55;;;;;;;29.30;18.87;;;;;;;-3.26;98.44;150541.97;5019311;28;20948;-79
2023/02/10 02:59:26;;;;;;;34.43;21.17;;;;;;;-3.30;98.20;150533.00;5025830;28;20473;-79
2023/02/10 03:01:57;;;;;;;28.20;19.43;;;;;;;-3.25;98.34;150544.50;5024542;28;20433;-79
2023/02/10 03:04:24;;;;;;;32.87;20.13;;;;;;;-3.25;98.23;150544.50;5028881;28;20424;-79
2023/02/10 03:06:51;;;;;;;30.17;18.73;;;;;;;-3.26;98.38;150541.97;5028130;28;20544;-79
2023/02/10 03:09:17;;;;;;;29.10;19.40;;;;;;;-3.21;97.86;150554.78;5060209;28;20564;-79
2023/02/10 03:11:44;;;;;;;31.47;20.03;;;;;;;-3.24;98.46;150548.38;5046040;28;20453;-79
2023/02/10 03:14:11;;;;;;;28.50;19.60;;;;;;;-3.23;98.61;150549.66;5029119;28;20470;-79
2023/02/10 03:16:38;;;;;;;31.10;21.30;;;;;;;-3.25;97.93;150545.81;5024038;28;20435;-79
2023/02/10 03:19:06;;;;;;;33.20;21.00;;;;;;;-3.26;98.43;150541.97;5029385;28;20489;-79
2023/02/10 03:21:32;;;;;;;33.13;20.67;;;;;;;-3.27;97.70;150539.41;5029268;28;20932;-79
2023/02/10 03:24:00;;;;;;;31.27;19.67;;;;;;;-3.22;97.78;150553.50;5027360;28;20541;-79
2023/02/10 03:26:27;;;;;;;32.13;21.63;;;;;;;-3.20;98.22;150558.59;5022368;28;20471;-79
2023/02/10 03:28:54;;;;;;;29.73;20.50;;;;;;;-3.17;97.93;150565.00;5058432;28;21768;-79
2023/02/10 03:31:21;;;;;;;35.00;19.80;;;;;;;-3.17;97.48;150566.28;5027642;28;20795;-79
2023/02/10 03:33:47;;;;;;;32.37;19.50;;;;;;;-3.14;97.86;150572.66;5059039;28;20844;-79
2023/02/10 03:36:15;;;;;;;29.37;19.30;;;;;;;-3.16;98.44;150568.84;5025745;28;20881;-79
2023/02/10 03:38:43;;;;;;;27.20;19.90;;;;;;;-3.12;97.84;150577.78;5061924;28;20830;-79
2023/02/10 03:41:09;;;;;;;29.00;18.83;;;;;;;-3.13;98.13;150575.25;5039309;28;20848;-79
2023/02/10 03:43:36;;;;;;;32.83;19.90;;;;;;;-3.15;97.71;150570.13;5030905;28;20453;-79
2023/02/10 03:46:04;;;;;;;29.37;19.40;;;;;;;-3.17;97.74;150565.00;5064831;28;20861;-79
2023/02/10 03:48:31;;;;;;;34.03;19.40;;;;;;;-3.22;97.57;150552.19;5029427;28;20454;-79
2023/02/10 03:50:59;;;;;;;28.40;18.80;;;;;;;-3.20;98.08;150557.31;5030007;28;20488;-79
2023/02/10 03:53:27;;;;;;;32.63;18.70;;;;;;;-3.20;97.83;150558.59;5012228;28;20472;-79
2023/02/10 03:55:54;;;;;;;24.90;17.70;;;;;;;-3.21;98.51;150556.06;5017681;28;20438;-79
2023/02/10 03:58:21;;;;;;;32.30;19.37;;;;;;;-3.23;98.54;150550.91;5032415;28;20505;-79
2023/02/10 04:00:48;;;;;;;30.57;19.47;;;;;;;-3.21;99.03;150554.78;5044045;28;20486;-79
2023/02/10 04:03:15;;;;;;;26.40;17.63;;;;;;;-3.19;98.83;150559.88;5031922;28;20445;-79
2023/02/10 04:05:42;;;;;;;32.10;19.60;;;;;;;-3.20;98.42;150558.59;5032585;28;20561;-79
2023/02/10 04:08:09;;;;;;;30.50;19.50;;;;;;;-3.18;98.83;150563.69;5030049;28;20978;-79
2023/02/10 04:10:37;;;;;;;27.50;17.40;;;;;;;-3.16;99.11;150567.56;5055892;28;20944;-75
2023/02/10 04:13:04;;;;;;;27.60;17.57;;;;;;;-3.17;99.06;150565.00;5041736;28;20441;-75
2023/02/10 04:15:30;;;;;;;26.43;18.10;;;;;;;-3.18;98.70;150563.69;5064108;28;20484;-75
2023/02/10 04:17:57;;;;;;;26.70;18.40;;;;;;;-3.19;98.80;150559.88;5030911;28;20474;-75
2023/02/10 04:20:24;;;;;;;28.67;17.83;;;;;;;-3.19;98.73;150559.88;5027988;28;20823;-75
2023/02/10 04:22:51;;;;;;;26.03;17.67;;;;;;;-3.22;98.41;150552.19;5065153;28;20491;-75
2023/02/10 04:25:18;;;;;;;26.80;17.27;;;;;;;-3.26;98.03;150541.97;5061712;28;20469;-75
2023/02/10 04:27:46;;;;;;;29.17;18.43;;;;;;;-3.29;98.96;150534.31;5030646;28;20464;-74
2023/02/10 04:30:13;;;;;;;32.63;18.10;;;;;;;-3.33;98.89;150525.31;5025118;28;20508;-75
2023/02/10 04:32:39;;;;;;;29.90;19.23;;;;;;;-3.29;99.85;150534.31;5031693;28;20538;-75
2023/02/10 04:35:07;;;;;;;31.57;17.90;;;;;;;-3.27;99.34;150539.41;5048266;28;20465;-74
2023/02/10 04:37:33;;;;;;;26.90;18.00;;;;;;;-3.32;99.18;150526.63;5029356;28;20474;-74
2023/02/10 04:40:00;;;;;;;28.00;19.67;;;;;;;-3.32;99.44;150526.63;5032823;28;20567;-74
2023/02/10 04:42:30;;;;;;;32.17;18.10;;;;;;;-3.31;99.93;150529.19;5031444;28;20457;-75
2023/02/10 04:44:59;;;;;;;31.27;19.30;;;;;;;-3.34;98.91;150522.81;5033253;28;20454;-74
2023/02/10 04:47:26;;;;;;;28.93;18.20;;;;;;;-3.34;98.80;150521.50;5028143;28;20468;-74
2023/02/10 04:49:53;;;;;;;28.57;18.63;;;;;;;-3.37;99.25;150513.84;5027074;28;20955;-75
2023/02/10 04:52:19;;;;;;;29.37;20.53;;;;;;;-3.46;99.65;150490.78;5032036;28;20859;-74
2023/02/10 04:54:46;;;;;;;27.30;18.33;;;;;;;-3.51;99.82;150479.28;5023802;28;20468;-74
2023/02/10 04:57:13;;;;;;;31.77;19.77;;;;;;;-3.55;100.00;150467.78;5026220;28;20809;-74
2023/02/10 04:59:40;;;;;;;28.40;18.00;;;;;;;-3.59;100.00;150457.53;5032041;28;20474;-75
2023/02/10 05:02:08;;;;;;;24.90;18.90;;;;;;;-3.61;100.00;150453.72;5028163;28;20450;-75
2023/02/10 05:04:34;;;;;;;34.30;21.20;;;;;;;-3.62;100.00;150449.84;5055039;28;20881;-74
2023/02/10 05:07:01;;;;;;;29.70;19.87;;;;;;;-3.66;100.00;150440.94;5043858;28;20453;-74
2023/02/10 05:09:28;;;;;;;27.80;18.50;;;;;;;-3.73;100.00;150424.28;5037949;28;20451;-74
2023/02/10 05:11:55;;;;;;;33.10;20.30;;;;;;;-3.74;100.00;150421.75;5027064;28;20426;-74
2023/02/10 05:14:21;;;;;;;27.20;18.20;;;;;;;-3.73;100.00;150424.28;5026007;28;20784;-75
2023/02/10 05:16:48;;;;;;;25.83;17.37;;;;;;;-3.70;100.00;150430.69;5032201;28;20561;-75
2023/02/10 05:19:16;;;;;;;28.37;19.40;;;;;;;-3.72;100.00;150425.56;5059167;28;20974;-75
2023/02/10 05:21:43;;;;;;;34.05;25.00;;;;;;;-3.74;100.00;150421.75;5012376;28;20527;-75
2023/02/10 05:24:09;;;;;;;28.03;20.53;;;;;;;-3.73;100.00;150423.00;5028972;28;20550;-74
2023/02/10 05:26:36;;;;;;;32.90;21.70;;;;;;;-3.76;100.00;150415.38;5030655;28;20442;-74
2023/02/10 05:29:03;;;;;;;30.40;20.57;;;;;;;-3.77;100.00;150412.78;5028459;28;20771;-74
2023/02/10 05:31:29;;;;;;;28.67;19.40;;;;;;;-3.77;100.00;150412.78;5025997;28;20541;-74
2023/02/10 05:33:56;;;;;;;27.50;17.30;;;;;;;-3.77;100.00;150414.06;5029285;28;20473;-74
2023/02/10 05:36:24;;;;;;;25.93;18.90;;;;;;;-3.74;100.00;150421.75;5031028;28;20432;-75
2023/02/10 05:41:32;;;;;;;25.60;17.47;;;;;;;-3.72;100.00;150426.84;5023397;28;20846;-74
2023/02/10 05:43:59;;;;;;;32.70;18.47;;;;;;;-3.74;100.00;150420.47;5052125;28;20914;-74
2023/02/10 05:46:25;;;;;;;28.60;18.40;;;;;;;-3.76;100.00;150415.38;5016699;28;20484;-74
2023/02/10 05:48:52;;;;;;;29.93;19.17;;;;;;;-3.85;100.00;150393.63;5011626;28;20537;-74
2023/02/10 05:51:18;;;;;;;29.90;19.33;;;;;;;-3.87;100.00;150388.50;5025413;28;20455;-74
2023/02/10 05:53:46;;;;;;;29.60;19.87;;;;;;;-3.88;100.00;150385.94;5028174;28;21095;-74
2023/02/10 05:56:13;;;;;;;26.20;17.27;;;;;;;-3.88;100.00;150385.94;5024758;28;20631;-74
2023/02/10 05:58:40;;;;;;;26.80;17.40;;;;;;;-3.92;100.00;150375.69;5061640;28;20484;-74
2023/02/10 06:01:07;;;;;;;24.20;18.93;;;;;;;-3.95;100.00;150368.06;5026506;28;20517;-74
2023/02/10 06:03:34;;;;;;;28.63;18.10;;;;;;;-3.95;100.00;150366.75;5024006;28;20940;-74
2023/02/10 06:06:01;;;;;;;27.13;17.87;;;;;;;-3.98;100.00;150359.09;5020476;28;20817;-74
2023/02/10 06:08:27;;;;;;;25.00;16.77;;;;;;;-3.99;100.00;150357.81;5020946;28;20426;-74
2023/02/10 06:10:56;;;;;;;28.20;17.23;;;;;;;-4.03;100.00;150347.59;5019433;28;20449;-74
2023/02/10 06:13:22;;;;;;;26.60;18.57;;;;;;;-4.04;100.00;150343.72;5018889;28;20468;-74
2023/02/10 06:15:49;;;;;;;28.23;18.63;;;;;;;-4.03;100.00;150347.59;5021539;28;20426;-74
2023/02/10 06:18:16;;;;;;;25.57;18.50;;;;;;;-4.07;100.00;150336.06;5019329;28;20486;-74
2023/02/10 06:20:42;;;;;;;25.70;17.87;;;;;;;-4.11;100.00;150327.13;5019157;28;20473;-74
2023/02/10 06:23:09;;;;;;;30.17;19.30;;;;;;;-4.06;100.00;150339.91;5005610;28;20462;-74
2023/02/10 06:25:37;;;;;;;29.97;18.83;;;;;;;-4.02;100.00;150348.84;5020680;28;20482;-74
2023/02/10 06:28:05;;;;;;;32.00;19.57;;;;;;;-3.99;100.00;150356.50;5018859;28;20476;-74
2023/02/10 06:30:32;;;;;;;27.30;18.07;;;;;;;-4.01;100.00;150352.69;5026391;28;20449;-74
2023/02/10 06:32:59;;;;;;;26.07;18.10;;;;;;;-4.01;100.00;150352.69;5018766;28;20464;-74
2023/02/10 06:35:25;;;;;;;28.73;18.20;;;;;;;-4.02;100.00;150350.13;5021606;28;20791;-74
2023/02/10 06:37:53;;;;;;;23.63;16.70;;;;;;;-4.01;100.00;150352.69;5025639;28;20457;-74
2023/02/10 06:40:20;;;;;;;24.57;17.30;;;;;;;-4.01;100.00;150351.41;5026519;28;20557;-74
2023/02/10 06:42:48;;;;;;;27.40;17.80;;;;;;;-3.97;100.00;150362.91;5022836;28;20571;-74
2023/02/10 06:45:16;;;;;;;25.07;17.83;;;;;;;-3.99;100.00;150356.50;5024483;28;20456;-74
2023/02/10 06:47:43;;;;;;;30.80;18.80;;;;;;;-3.98;100.00;150360.38;5025824;28;20453;-74
2023/02/10 06:50:12;;;;;;;28.80;19.10;;;;;;;-3.94;100.00;150369.28;5024901;28;20438;-74
2023/02/10 06:52:38;;;;;;;26.97;18.10;;;;;;;-3.97;100.00;150361.66;5017220;28;20457;-74
2023/02/10 06:55:06;;;;;;;30.27;17.10;;;;;;;-3.93;100.00;150371.88;5020423;28;20424;-74
2023/02/10 06:57:33;;;;;;;26.23;16.63;;;;;;;-3.90;100.00;150379.53;5026780;28;20425;-74
2023/02/10 07:00:00;;;;;;;31.03;18.87;;;;;;;-3.84;100.00;150394.91;5023802;28;20452;-74
2023/02/10 07:02:29;;;;;;;32.43;19.63;;;;;;;-3.82;100.00;150401.28;5024756;28;20804;-74
2023/02/10 07:04:56;;;;;;;27.77;18.63;;;;;;;-3.75;100.00;150419.19;5023478;28;20832;-74
2023/02/10 07:07:22;;;;;;;30.40;20.00;;;;;;;-3.63;100.00;150447.31;5020230;28;20429;-74
2023/02/10 07:09:49;;;;;;;30.03;19.80;;;;;;;-3.52;100.00;150475.47;5018814;28;20453;-74
2023/02/10 07:12:15;;;;;;;30.13;21.90;;;;;;;-3.36;100.00;150517.66;5007701;28;20470;-74
2023/02/10 07:14:43;;;;;;;33.23;21.90;;;;;;;-3.18;100.00;150562.47;5017940;28;20494;-75
2023/02/10 07:17:10;;;;;;;25.87;18.60;;;;;;;-2.97;100.00;150616.19;5025300;28;20450;-74
2023/02/10 07:19:38;;;;;;;27.87;18.03;;;;;;;-2.72;100.00;150678.88;5022734;28;20456;-75
2023/02/10 07:22:06;;;;;;;26.03;19.40;;;;;;;-2.58;99.19;150714.75;5022686;28;20482;-75
2023/02/10 07:24:33;;;;;;;27.93;19.17;;;;;;;-2.43;99.09;150751.84;5024301;28;20516;-75
2023/02/10 07:26:59;;;;;;;28.63;19.57;;;;;;;-2.16;98.86;150821.00;5017942;28;20550;-75
2023/02/10 07:29:26;;;;;;;32.20;21.60;;;;;;;-1.99;97.55;150865.84;5022444;28;20454;-75
2023/02/10 07:31:53;;;;;;;31.10;21.70;;;;;;;-1.84;97.84;150902.97;4998171;28;20532;-74
2023/02/10 07:34:20;;;;;;;33.90;21.23;;;;;;;-1.74;96.32;150927.31;5038038;28;20470;-74
2023/02/10 07:36:53;;;;;;;33.43;20.97;;;;;;;-1.61;96.73;150961.91;5020556;28;20437;-74
2023/02/10 07:39:20;;;;;;;29.80;20.57;;;;;;;-1.44;96.26;151005.50;5028443;28;20585;-74
2023/02/10 07:41:47;;;;;;;31.20;22.90;;;;;;;-1.35;94.82;151027.28;5022805;28;20554;-74
2023/02/10 07:44:14;;;;;;;27.67;20.90;;;;;;;-1.18;95.47;151069.56;5017256;28;20552;-74
2023/02/10 07:46:40;;;;;;;31.50;21.83;;;;;;;-1.08;93.55;151095.19;5006177;28;20513;-74
2023/02/10 07:49:07;;;;;;;31.17;21.13;;;;;;;-0.97;91.84;151124.69;5024734;28;20573;-73
2023/02/10 07:51:34;;;;;;;29.27;20.90;;;;;;;-0.68;92.09;151197.78;5025112;28;20455;-75
2023/02/10 07:54:02;;;;;;;30.90;20.60;;;;;;;-0.62;91.10;151213.19;5038476;28;21021;-74
2023/02/10 07:56:29;;;;;;;27.40;21.33;;;;;;;-0.62;90.20;151213.19;5012446;28;20471;-74
2023/02/10 07:58:56;;;;;;;29.07;19.50;;;;;;;-0.53;90.21;151235.00;5025358;28;20476;-74
2023/02/10 08:01:23;;;;;;;28.40;21.50;;;;;;;-0.44;90.13;151259.34;5022983;28;21018;-74
2023/02/10 08:03:50;;;;;;;28.90;20.53;;;;;;;-0.36;89.09;151278.56;5018463;28;20878;-75
2023/02/10 08:06:20;;;;;;;31.93;21.20;;;;;;;-0.39;88.74;151272.16;5022013;28;20557;-74
2023/02/10 08:08:47;;;;;;;30.17;21.90;;;;;;;-0.27;89.90;151302.97;5022957;28;21031;-74
2023/02/10 08:11:20;;;;;;;25.63;20.97;;;;;;;-0.09;88.99;151349.16;5020012;28;20575;-74
2023/02/10 08:13:47;;;;;;;31.27;21.63;;;;;;;-0.01;89.23;151369.69;5022937;28;20463;-74
2023/02/10 08:16:14;;;;;;;31.20;22.93;;;;;;;0.13;89.54;151403.06;5021367;28;20583;-74
2023/02/10 08:18:41;;;;;;;30.80;21.40;;;;;;;0.10;88.14;151395.34;5022399;28;20533;-74
2023/02/10 08:21:08;;;;;;;31.00;22.60;;;;;;;0.04;87.71;151379.94;5020854;28;20448;-75
2023/02/10 08:23:36;;;;;;;34.17;23.70;;;;;;;0.02;86.89;151374.81;5023595;28;20590;-74
2023/02/10 08:26:04;;;;;;;28.67;23.37;;;;;;;-0.03;88.03;151364.53;5023957;28;20841;-75
2023/02/10 08:28:34;;;;;;;32.23;23.37;;;;;;;-0.09;87.25;151349.16;5025817;28;20532;-74
2023/02/10 08:31:01;;;;;;;35.30;23.60;;;;;;;-0.13;88.58;151338.88;5026212;28;20438;-74
2023/02/10 08:33:28;;;;;;;34.30;24.27;;;;;;;-0.18;88.71;151326.03;5023536;28;20868;-75
2023/02/10 08:35:54;;;;;;;37.00;24.70;;;;;;;-0.21;89.32;151318.34;5025343;28;20491;-75
2023/02/10 08:38:21;;;;;;;32.63;25.20;;;;;;;-0.24;88.72;151310.63;5038113;28;20559;-75
2023/02/10 08:40:54;;;;;;;32.90;24.60;;;;;;;-0.28;88.82;151299.09;5020422;28;20484;-75
2023/02/10 08:43:21;;;;;;;32.77;23.60;;;;;;;-0.24;89.24;151309.38;5010425;28;20485;-75
2023/02/10 08:45:50;;;;;;;34.87;24.17;;;;;;;-0.20;89.32;151320.91;5050842;28;20452;-74
2023/02/10 08:48:17;;;;;;;32.87;22.47;;;;;;;-0.23;88.24;151313.22;5020141;28;20449;-74
2023/02/10 08:50:43;;;;;;;33.57;24.10;;;;;;;-0.28;88.50;151300.41;5019093;28;20701;-74
2023/02/10 08:53:10;;;;;;;36.87;23.80;;;;;;;-0.26;88.14;151304.22;5025066;28;20535;-74
2023/02/10 08:55:37;;;;;;;33.33;21.73;;;;;;;-0.19;88.67;151323.50;5025513;28;20456;-74
2023/02/10 08:58:05;;;;;;;34.20;22.83;;;;;;;-0.16;88.94;151331.16;5026985;28;20521;-74
2023/02/10 09:00:32;;;;;;;28.27;21.50;;;;;;;-0.10;88.76;151346.56;5018047;28;20560;-74
2023/02/10 09:03:00;;;;;;;31.70;24.00;;;;;;;-0.09;88.63;151349.16;5025785;28;20869;-74
2023/02/10 09:05:27;;;;;;;32.00;23.50;;;;;;;0.00;89.57;151372.22;5025655;28;20908;-75
2023/02/10 09:07:54;;;;;;;29.80;22.73;;;;;;;0.11;89.42;151397.94;5026752;28;20599;-74
2023/02/10 09:10:21;;;;;;;33.93;22.20;;;;;;;0.19;88.86;151419.72;5021588;28;20453;-74
2023/02/10 09:12:48;;;;;;;34.90;23.10;;;;;;;0.20;86.90;151421.00;5024745;28;20998;-74
2023/02/10 09:15:14;;;;;;;33.43;22.83;;;;;;;0.37;87.59;151465.91;5026300;28;21156;-74
2023/02/10 09:17:41;;;;;;;33.60;22.70;;;;;;;0.42;87.87;151478.78;5042520;28;20445;-74
2023/02/10 09:20:11;;;;;;;33.47;22.47;;;;;;;0.37;87.10;151464.66;5023519;28;20547;-74
2023/02/10 09:22:38;;;;;;;33.30;21.27;;;;;;;0.34;87.10;151458.25;5026420;28;20454;-74
2023/02/10 09:25:05;;;;;;;31.50;20.97;;;;;;;0.29;87.47;151445.38;5024535;28;20809;-74
2023/02/10 09:27:32;;;;;;;31.40;21.90;;;;;;;0.30;88.96;151447.97;5027339;28;20445;-74
2023/02/10 09:29:58;;;;;;;30.30;22.10;;;;;;;0.31;88.10;151450.53;5021794;28;20503;-74
2023/02/10 09:32:25;;;;;;;29.13;20.90;;;;;;;0.30;87.16;151446.66;5021062;28;20496;-74
2023/02/10 09:34:52;;;;;;;32.90;20.27;;;;;;;0.32;88.00;151451.84;5019278;28;20441;-74
2023/02/10 09:37:21;;;;;;;34.43;22.27;;;;;;;0.33;88.05;151455.66;5019836;28;20526;-74
2023/02/10 09:39:47;;;;;;;31.00;22.43;;;;;;;0.38;88.57;151468.50;5021528;28;20511;-74
2023/02/10 09:42:20;;;;;;;28.87;21.57;;;;;;;0.44;88.36;151482.63;5026294;28;20558;-74
2023/02/10 09:44:49;;;;;;;27.33;21.20;;;;;;;0.45;88.72;151485.22;5020744;28;20784;-74
2023/02/10 09:47:37;;;;;;;31.30;23.53;;;;;;;0.52;89.29;151503.16;5025525;28;20452;-74
2023/02/10 09:50:20;;;;;;;28.77;22.43;;;;;;;0.56;88.45;151514.69;5034474;28;20477;-74
2023/02/10 09:52:57;;;;;;;27.73;21.03;;;;;;;0.65;88.42;151536.53;5025916;28;20443;-74
2023/02/10 09:55:28;;;;;;;30.63;22.30;;;;;;;0.70;88.95;151548.09;5021070;28;20506;-74
2023/02/10 09:57:59;;;;;;;32.40;22.00;;;;;;;0.79;88.16;151571.22;5022259;28;20451;-74
2023/02/10 10:00:28;;;;;;;30.60;22.00;;;;;;;0.79;88.36;151572.50;5021129;28;20560;-74
2023/02/10 10:02:56;;;;;;;32.70;22.13;;;;;;;0.87;87.94;151593.06;5025321;28;20508;-74
2023/02/10 10:05:36;;;;;;;28.17;22.20;;;;;;;0.93;88.06;151608.44;5041516;28;20476;-74
2023/02/10 10:08:08;;;;;;;33.60;23.23;;;;;;;1.03;87.86;151634.09;5025575;28;20461;-74
2023/02/10 10:10:40;;;;;;;36.40;22.90;;;;;;;1.12;87.44;151655.97;5017048;28;20446;-74
2023/02/10 10:13:14;;;;;;;28.20;19.80;;;;;;;1.24;85.93;151686.81;5019412;28;20452;-74
2023/02/10 10:15:45;;;;;;;31.80;22.53;;;;;;;1.22;85.58;151681.63;5034124;28;20472;-74
2023/02/10 10:18:17;;;;;;;30.60;21.90;;;;;;;1.18;85.88;151672.69;5024159;28;20482;-74
2023/02/10 10:20:52;;;;;;;31.90;23.23;;;;;;;1.40;85.52;151726.63;5024903;28;20470;-75
2023/02/10 10:23:37;;;;;;;33.90;21.90;;;;;;;1.41;85.00;151729.16;5024749;28;20453;-74
2023/02/10 10:26:26;;;;;;;33.77;23.40;;;;;;;1.36;85.39;151716.31;5018932;28;20963;-74
2023/02/10 10:29:05;;;;;;;28.40;20.50;;;;;;;1.42;84.91;151731.75;5024393;28;20633;-74
2023/02/10 10:31:35;;;;;;;32.73;21.00;;;;;;;1.58;83.84;151772.88;5018141;28;20543;-74
2023/02/10 10:34:09;;;;;;;42.23;22.67;;;;;;;1.49;84.54;151749.72;5051989;28;20454;-74
2023/02/10 10:36:37;;;;;;;28.20;21.30;;;;;;;1.41;85.36;151729.16;5023975;28;20892;-74
2023/02/10 10:39:14;;;;;;;30.37;22.03;;;;;;;1.45;85.14;151739.47;5036226;28;20813;-74
2023/02/10 10:41:42;;;;;;;32.07;22.07;;;;;;;1.54;84.21;151762.56;5024481;28;20929;-74
2023/02/10 10:44:11;;;;;;;28.13;21.70;;;;;;;1.51;84.00;151754.91;5020319;28;20549;-75
2023/02/10 10:46:41;;;;;;;31.60;23.40;;;;;;;1.48;85.30;151748.50;5018778;28;20489;-74
2023/02/10 10:49:08;;;;;;;32.43;21.37;;;;;;;1.54;84.69;151762.56;5020279;28;20807;-74
2023/02/10 10:51:35;;;;;;;33.37;22.60;;;;;;;1.53;84.18;151760.03;5006935;28;20603;-74
2023/02/10 10:54:02;;;;;;;29.87;20.80;;;;;;;1.55;83.63;151766.47;5019324;28;20482;-74
2023/02/10 10:56:37;;;;;;;29.80;20.53;;;;;;;1.54;84.11;151763.88;5023689;28;20463;-74
2023/02/10 10:59:13;;;;;;;30.07;21.00;;;;;;;1.56;83.58;151767.75;5024681;28;20461;-74
2023/02/10 11:01:42;;;;;;;29.37;19.13;;;;;;;1.57;83.68;151771.59;5023936;28;20928;-74
2023/02/10 11:04:13;;;;;;;29.00;21.17;;;;;;;1.56;82.94;151769.00;5023748;28;20457;-74
2023/02/10 11:06:41;;;;;;;24.00;19.23;;;;;;;1.58;82.82;151772.88;5017554;28;20443;-74
2023/02/10 11:09:21;;;;;;;31.50;17.97;;;;;;;1.55;83.07;151765.16;5019279;28;20540;-74
2023/02/10 11:11:50;;;;;;;29.33;19.37;;;;;;;1.99;81.24;151878.25;5020781;28;20445;-74
2023/02/10 11:14:18;;;;;;;33.27;20.43;;;;;;;2.13;78.60;151912.97;5017063;28;20450;-74
2023/02/10 11:16:47;;;;;;;24.93;18.90;;;;;;;2.40;76.00;151982.41;5019207;28;20508;-74
2023/02/10 11:19:19;;;;;;;27.70;17.93;;;;;;;2.42;74.84;151988.84;5023435;28;20461;-74